Coal Mine Mesa, Arizona
Current Conditions -  °F | °C
As of 1:54 PM on Thursday 23 Oct 2014 (Local Time) from KGCN Reporting Station
Smoke Smoke  
Wind Chill: 69°   Ceiling: Unl
Heat Index: 69°   Visibility: 10mi
Dew Point: 31°   Wind: 9mph
Humidity: 24%   Direction: 200°SSW
Pressure: 30.31"   Gusts: NA
Location:  35.9808°N, 111.359°W
Report Text: KGCN 231954Z 20008KT 10SM FU CLR 21/M01 A3031 RMK AO2 SLP207 T02061006
Loading
Personal Weather Stations






























Interactive Weather Map
Tropical Storm Tracking
New forecast layout! Learn more

10-Day Weather Forecast

Advertisements
Track Severe Weather on mobile